sensor_id;sensor_type;location;lat;lon;timestamp;P1;durP1;ratioP1;P2;durP2;ratioP2
64210;SDS011;50528;48.514;14.394;2022-07-15T00:00:26;4.10;;;2.70;;
64210;SDS011;50528;48.514;14.394;2022-07-15T00:01:37;4.10;;;2.90;;
64210;SDS011;50528;48.514;14.394;2022-07-15T00:02:41;8.80;;;3.20;;
64210;SDS011;50528;48.514;14.394;2022-07-15T00:03:48;4.50;;;2.70;;
64210;SDS011;50528;48.514;14.394;2022-07-15T00:04:52;6.00;;;3.10;;
64210;SDS011;50528;48.514;14.394;2022-07-15T00:06:00;4.80;;;3.10;;
64210;SDS011;50528;48.514;14.394;2022-07-15T00:07:03;6.60;;;3.20;;
64210;SDS011;50528;48.514;14.394;2022-07-15T00:08:07;6.60;;;3.10;;
64210;SDS011;50528;48.514;14.394;2022-07-15T00:09:10;4.90;;;3.30;;
64210;SDS011;50528;48.514;14.394;2022-07-15T00:10:13;5.10;;;3.10;;
64210;SDS011;50528;48.514;14.394;2022-07-15T00:11:24;5.80;;;3.40;;
64210;SDS011;50528;48.514;14.394;2022-07-15T00:12:27;6.70;;;3.30;;
64210;SDS011;50528;48.514;14.394;2022-07-15T00:13:30;4.30;;;3.20;;
64210;SDS011;50528;48.514;14.394;2022-07-15T00:14:34;5.60;;;3.20;;
64210;SDS011;50528;48.514;14.394;2022-07-15T00:15:37;5.80;;;3.30;;
64210;SDS011;50528;48.514;14.394;2022-07-15T00:16:40;6.40;;;3.20;;
64210;SDS011;50528;48.514;14.394;2022-07-15T00:17:43;5.30;;;3.30;;
64210;SDS011;50528;48.514;14.394;2022-07-15T00:18:46;5.40;;;3.40;;
64210;SDS011;50528;48.514;14.394;2022-07-15T00:19:49;4.30;;;3.20;;
64210;SDS011;50528;48.514;14.394;2022-07-15T00:20:53;4.70;;;3.10;;
64210;SDS011;50528;48.514;14.394;2022-07-15T00:21:56;5.70;;;3.30;;
64210;SDS011;50528;48.514;14.394;2022-07-15T00:23:03;6.60;;;3.20;;
64210;SDS011;50528;48.514;14.394;2022-07-15T00:24:07;6.10;;;3.10;;
64210;SDS011;50528;48.514;14.394;2022-07-15T00:25:11;4.50;;;3.40;;
64210;SDS011;50528;48.514;14.394;2022-07-15T00:26:15;5.50;;;3.40;;
64210;SDS011;50528;48.514;14.394;2022-07-15T00:27:18;5.20;;;3.30;;
64210;SDS011;50528;48.514;14.394;2022-07-15T00:28:21;5.80;;;3.30;;
64210;SDS011;50528;48.514;14.394;2022-07-15T00:29:25;6.20;;;3.20;;
64210;SDS011;50528;48.514;14.394;2022-07-15T00:30:35;4.80;;;3.10;;
64210;SDS011;50528;48.514;14.394;2022-07-15T00:31:40;6.00;;;3.40;;
64210;SDS011;50528;48.514;14.394;2022-07-15T00:32:44;5.10;;;3.10;;
64210;SDS011;50528;48.514;14.394;2022-07-15T00:33:47;5.60;;;3.10;;
64210;SDS011;50528;48.514;14.394;2022-07-15T00:34:50;6.60;;;3.40;;
64210;SDS011;50528;48.514;14.394;2022-07-15T00:35:56;4.50;;;3.30;;
64210;SDS011;50528;48.514;14.394;2022-07-15T00:36:59;5.90;;;3.10;;
64210;SDS011;50528;48.514;14.394;2022-07-15T00:38:03;5.60;;;3.30;;
64210;SDS011;50528;48.514;14.394;2022-07-15T00:39:16;5.20;;;3.40;;
64210;SDS011;50528;48.514;14.394;2022-07-15T00:40:19;6.40;;;3.40;;
64210;SDS011;50528;48.514;14.394;2022-07-15T00:41:22;5.90;;;3.20;;
64210;SDS011;50528;48.514;14.394;2022-07-15T00:42:26;6.40;;;3.30;;
64210;SDS011;50528;48.514;14.394;2022-07-15T00:43:47;5.40;;;3.50;;
64210;SDS011;50528;48.514;14.394;2022-07-15T00:44:50;6.50;;;3.80;;
64210;SDS011;50528;48.514;14.394;2022-07-15T00:45:54;8.00;;;3.80;;
64210;SDS011;50528;48.514;14.394;2022-07-15T00:46:57;5.90;;;3.70;;
64210;SDS011;50528;48.514;14.394;2022-07-15T00:48:03;6.50;;;3.80;;
64210;SDS011;50528;48.514;14.394;2022-07-15T00:49:10;8.10;;;3.60;;
64210;SDS011;50528;48.514;14.394;2022-07-15T00:50:15;5.50;;;4.00;;
64210;SDS011;50528;48.514;14.394;2022-07-15T00:51:19;7.70;;;3.80;;
64210;SDS011;50528;48.514;14.394;2022-07-15T00:52:22;5.60;;;3.80;;
64210;SDS011;50528;48.514;14.394;2022-07-15T00:53:28;5.40;;;3.80;;
64210;SDS011;50528;48.514;14.394;2022-07-15T00:54:32;4.40;;;3.80;;
64210;SDS011;50528;48.514;14.394;2022-07-15T00:55:37;4.70;;;3.60;;
64210;SDS011;50528;48.514;14.394;2022-07-15T00:56:54;6.10;;;4.00;;
64210;SDS011;50528;48.514;14.394;2022-07-15T00:58:00;6.10;;;4.30;;
64210;SDS011;50528;48.514;14.394;2022-07-15T00:59:06;8.70;;;4.30;;
64210;SDS011;50528;48.514;14.394;2022-07-15T01:00:13;5.40;;;4.20;;
64210;SDS011;50528;48.514;14.394;2022-07-15T01:01:20;6.90;;;4.10;;
64210;SDS011;50528;48.514;14.394;2022-07-15T01:02:23;5.60;;;4.10;;
64210;SDS011;50528;48.514;14.394;2022-07-15T01:03:27;9.30;;;4.00;;
64210;SDS011;50528;48.514;14.394;2022-07-15T01:04:32;6.10;;;4.00;;
64210;SDS011;50528;48.514;14.394;2022-07-15T01:05:36;5.60;;;3.70;;
64210;SDS011;50528;48.514;14.394;2022-07-15T01:06:40;6.30;;;3.80;;
64210;SDS011;50528;48.514;14.394;2022-07-15T01:07:43;5.20;;;3.90;;
64210;SDS011;50528;48.514;14.394;2022-07-15T01:08:47;6.80;;;3.90;;
64210;SDS011;50528;48.514;14.394;2022-07-15T01:09:50;4.60;;;3.60;;
64210;SDS011;50528;48.514;14.394;2022-07-15T01:10:53;5.50;;;4.10;;
64210;SDS011;50528;48.514;14.394;2022-07-15T01:11:56;5.90;;;3.90;;
64210;SDS011;50528;48.514;14.394;2022-07-15T01:13:01;6.90;;;4.10;;
64210;SDS011;50528;48.514;14.394;2022-07-15T01:14:05;8.40;;;4.10;;
64210;SDS011;50528;48.514;14.394;2022-07-15T01:15:08;6.30;;;3.90;;
64210;SDS011;50528;48.514;14.394;2022-07-15T01:16:12;6.30;;;4.10;;
64210;SDS011;50528;48.514;14.394;2022-07-15T01:17:18;7.70;;;3.90;;
64210;SDS011;50528;48.514;14.394;2022-07-15T01:18:21;5.30;;;4.00;;
64210;SDS011;50528;48.514;14.394;2022-07-15T01:19:25;7.20;;;4.00;;
64210;SDS011;50528;48.514;14.394;2022-07-15T01:20:28;5.50;;;3.90;;
64210;SDS011;50528;48.514;14.394;2022-07-15T01:21:31;5.90;;;3.90;;
64210;SDS011;50528;48.514;14.394;2022-07-15T01:22:35;7.40;;;4.20;;
64210;SDS011;50528;48.514;14.394;2022-07-15T01:23:38;5.50;;;4.20;;
64210;SDS011;50528;48.514;14.394;2022-07-15T01:24:45;5.40;;;4.30;;
64210;SDS011;50528;48.514;14.394;2022-07-15T01:25:48;5.70;;;4.00;;
64210;SDS011;50528;48.514;14.394;2022-07-15T01:26:52;7.10;;;4.30;;
64210;SDS011;50528;48.514;14.394;2022-07-15T01:27:55;7.50;;;4.50;;
64210;SDS011;50528;48.514;14.394;2022-07-15T01:28:58;5.50;;;4.00;;
64210;SDS011;50528;48.514;14.394;2022-07-15T01:30:01;6.30;;;4.30;;
64210;SDS011;50528;48.514;14.394;2022-07-15T01:31:05;5.50;;;4.40;;
64210;SDS011;50528;48.514;14.394;2022-07-15T01:32:08;8.40;;;4.80;;
64210;SDS011;50528;48.514;14.394;2022-07-15T01:33:12;5.90;;;4.40;;
64210;SDS011;50528;48.514;14.394;2022-07-15T01:34:18;7.20;;;4.50;;
64210;SDS011;50528;48.514;14.394;2022-07-15T01:35:22;6.80;;;4.50;;
64210;SDS011;50528;48.514;14.394;2022-07-15T01:36:25;8.40;;;4.60;;
64210;SDS011;50528;48.514;14.394;2022-07-15T01:37:28;6.10;;;4.60;;
64210;SDS011;50528;48.514;14.394;2022-07-15T01:38:31;7.10;;;5.10;;
64210;SDS011;50528;48.514;14.394;2022-07-15T01:39:49;8.10;;;4.70;;
64210;SDS011;50528;48.514;14.394;2022-07-15T01:40:52;7.90;;;4.70;;
64210;SDS011;50528;48.514;14.394;2022-07-15T01:41:55;8.20;;;4.70;;
64210;SDS011;50528;48.514;14.394;2022-07-15T01:42:58;6.10;;;4.60;;
64210;SDS011;50528;48.514;14.394;2022-07-15T01:44:01;7.40;;;5.20;;
64210;SDS011;50528;48.514;14.394;2022-07-15T01:45:05;7.50;;;5.20;;
64210;SDS011;50528;48.514;14.394;2022-07-15T01:46:09;7.40;;;5.10;;
64210;SDS011;50528;48.514;14.394;2022-07-15T01:47:12;8.50;;;5.50;;
64210;SDS011;50528;48.514;14.394;2022-07-15T01:48:16;8.80;;;5.30;;
64210;SDS011;50528;48.514;14.394;2022-07-15T01:49:37;7.60;;;5.40;;
64210;SDS011;50528;48.514;14.394;2022-07-15T01:50:40;9.30;;;5.20;;
64210;SDS011;50528;48.514;14.394;2022-07-15T01:51:43;6.80;;;5.10;;
64210;SDS011;50528;48.514;14.394;2022-07-15T01:52:47;7.00;;;5.10;;
64210;SDS011;50528;48.514;14.394;2022-07-15T01:53:50;7.70;;;5.10;;
64210;SDS011;50528;48.514;14.394;2022-07-15T01:54:53;7.20;;;4.90;;
64210;SDS011;50528;48.514;14.394;2022-07-15T01:55:56;9.60;;;4.90;;
64210;SDS011;50528;48.514;14.394;2022-07-15T01:56:59;6.50;;;4.80;;
64210;SDS011;50528;48.514;14.394;2022-07-15T01:58:02;6.60;;;4.80;;
64210;SDS011;50528;48.514;14.394;2022-07-15T01:59:06;6.80;;;5.10;;
64210;SDS011;50528;48.514;14.394;2022-07-15T02:00:09;5.80;;;4.90;;
64210;SDS011;50528;48.514;14.394;2022-07-15T02:01:14;8.50;;;5.10;;
64210;SDS011;50528;48.514;14.394;2022-07-15T02:02:21;6.80;;;5.10;;
64210;SDS011;50528;48.514;14.394;2022-07-15T02:03:24;6.10;;;4.70;;
64210;SDS011;50528;48.514;14.394;2022-07-15T02:04:27;8.90;;;5.10;;
64210;SDS011;50528;48.514;14.394;2022-07-15T02:05:31;8.30;;;5.60;;
64210;SDS011;50528;48.514;14.394;2022-07-15T02:06:34;6.30;;;5.20;;
64210;SDS011;50528;48.514;14.394;2022-07-15T02:07:37;8.60;;;5.80;;
64210;SDS011;50528;48.514;14.394;2022-07-15T02:08:41;8.30;;;5.90;;
64210;SDS011;50528;48.514;14.394;2022-07-15T02:09:44;9.10;;;5.60;;
64210;SDS011;50528;48.514;14.394;2022-07-15T02:10:47;7.90;;;5.30;;
64210;SDS011;50528;48.514;14.394;2022-07-15T02:11:51;8.10;;;6.00;;
64210;SDS011;50528;48.514;14.394;2022-07-15T02:12:54;7.60;;;5.20;;
64210;SDS011;50528;48.514;14.394;2022-07-15T02:13:57;9.20;;;5.30;;
64210;SDS011;50528;48.514;14.394;2022-07-15T02:15:02;6.70;;;5.50;;
64210;SDS011;50528;48.514;14.394;2022-07-15T02:16:06;7.60;;;5.40;;
64210;SDS011;50528;48.514;14.394;2022-07-15T02:17:09;7.40;;;5.00;;
64210;SDS011;50528;48.514;14.394;2022-07-15T02:18:12;9.90;;;5.60;;
64210;SDS011;50528;48.514;14.394;2022-07-15T02:19:15;9.40;;;5.30;;
64210;SDS011;50528;48.514;14.394;2022-07-15T02:20:18;8.30;;;5.60;;
64210;SDS011;50528;48.514;14.394;2022-07-15T02:21:21;7.70;;;5.40;;
64210;SDS011;50528;48.514;14.394;2022-07-15T02:22:24;7.40;;;5.30;;
64210;SDS011;50528;48.514;14.394;2022-07-15T02:23:28;7.30;;;5.50;;
64210;SDS011;50528;48.514;14.394;2022-07-15T02:24:31;8.00;;;5.60;;
64210;SDS011;50528;48.514;14.394;2022-07-15T02:25:34;7.00;;;5.80;;
64210;SDS011;50528;48.514;14.394;2022-07-15T02:26:38;6.50;;;5.40;;
64210;SDS011;50528;48.514;14.394;2022-07-15T02:27:41;9.70;;;5.80;;
64210;SDS011;50528;48.514;14.394;2022-07-15T02:28:44;8.60;;;6.00;;
64210;SDS011;50528;48.514;14.394;2022-07-15T02:29:47;9.30;;;5.70;;
64210;SDS011;50528;48.514;14.394;2022-07-15T02:30:50;8.20;;;6.00;;
64210;SDS011;50528;48.514;14.394;2022-07-15T02:31:53;10.90;;;5.30;;
64210;SDS011;50528;48.514;14.394;2022-07-15T02:32:56;8.10;;;5.30;;
64210;SDS011;50528;48.514;14.394;2022-07-15T02:33:59;8.90;;;5.40;;
64210;SDS011;50528;48.514;14.394;2022-07-15T02:35:03;11.20;;;5.00;;
64210;SDS011;50528;48.514;14.394;2022-07-15T02:36:07;10.10;;;5.40;;
64210;SDS011;50528;48.514;14.394;2022-07-15T02:37:10;8.40;;;5.20;;
64210;SDS011;50528;48.514;14.394;2022-07-15T02:38:16;8.60;;;5.30;;
64210;SDS011;50528;48.514;14.394;2022-07-15T02:39:20;8.20;;;4.80;;
64210;SDS011;50528;48.514;14.394;2022-07-15T02:40:23;6.60;;;5.10;;
64210;SDS011;50528;48.514;14.394;2022-07-15T02:41:26;8.30;;;4.80;;
64210;SDS011;50528;48.514;14.394;2022-07-15T02:42:30;8.50;;;5.00;;
64210;SDS011;50528;48.514;14.394;2022-07-15T02:43:34;6.50;;;4.30;;
64210;SDS011;50528;48.514;14.394;2022-07-15T02:44:39;7.50;;;4.70;;
64210;SDS011;50528;48.514;14.394;2022-07-15T02:45:42;5.90;;;4.20;;
64210;SDS011;50528;48.514;14.394;2022-07-15T02:46:45;7.60;;;4.40;;
64210;SDS011;50528;48.514;14.394;2022-07-15T02:47:49;6.70;;;4.10;;
64210;SDS011;50528;48.514;14.394;2022-07-15T02:48:52;5.40;;;4.70;;
64210;SDS011;50528;48.514;14.394;2022-07-15T02:49:56;6.70;;;4.40;;
64210;SDS011;50528;48.514;14.394;2022-07-15T02:50:59;7.00;;;4.60;;
64210;SDS011;50528;48.514;14.394;2022-07-15T02:52:02;6.70;;;4.30;;
64210;SDS011;50528;48.514;14.394;2022-07-15T02:53:05;6.50;;;4.20;;
64210;SDS011;50528;48.514;14.394;2022-07-15T02:54:08;7.60;;;4.30;;
64210;SDS011;50528;48.514;14.394;2022-07-15T02:55:12;6.50;;;4.40;;
64210;SDS011;50528;48.514;14.394;2022-07-15T02:56:16;6.00;;;4.00;;
64210;SDS011;50528;48.514;14.394;2022-07-15T02:57:19;7.30;;;4.60;;
64210;SDS011;50528;48.514;14.394;2022-07-15T02:58:23;6.20;;;4.30;;
64210;SDS011;50528;48.514;14.394;2022-07-15T02:59:26;10.80;;;4.20;;
64210;SDS011;50528;48.514;14.394;2022-07-15T03:00:29;8.90;;;4.40;;
64210;SDS011;50528;48.514;14.394;2022-07-15T03:01:33;7.20;;;4.50;;
64210;SDS011;50528;48.514;14.394;2022-07-15T03:02:36;6.70;;;4.40;;
64210;SDS011;50528;48.514;14.394;2022-07-15T03:03:40;7.20;;;4.20;;
64210;SDS011;50528;48.514;14.394;2022-07-15T03:04:43;7.20;;;4.40;;
64210;SDS011;50528;48.514;14.394;2022-07-15T03:05:47;5.70;;;4.30;;
64210;SDS011;50528;48.514;14.394;2022-07-15T03:06:51;7.20;;;4.20;;
64210;SDS011;50528;48.514;14.394;2022-07-15T03:07:54;5.50;;;4.20;;
64210;SDS011;50528;48.514;14.394;2022-07-15T03:08:57;7.20;;;4.30;;
64210;SDS011;50528;48.514;14.394;2022-07-15T03:10:01;10.40;;;4.40;;
64210;SDS011;50528;48.514;14.394;2022-07-15T03:11:05;6.60;;;4.30;;
64210;SDS011;50528;48.514;14.394;2022-07-15T03:12:08;5.10;;;4.40;;
64210;SDS011;50528;48.514;14.394;2022-07-15T03:13:11;7.00;;;3.90;;
64210;SDS011;50528;48.514;14.394;2022-07-15T03:14:14;6.30;;;4.30;;
64210;SDS011;50528;48.514;14.394;2022-07-15T03:15:22;6.20;;;4.20;;
64210;SDS011;50528;48.514;14.394;2022-07-15T03:16:25;6.90;;;4.40;;
64210;SDS011;50528;48.514;14.394;2022-07-15T03:17:28;6.50;;;4.10;;
64210;SDS011;50528;48.514;14.394;2022-07-15T03:18:31;5.60;;;4.40;;
64210;SDS011;50528;48.514;14.394;2022-07-15T03:19:34;6.00;;;4.40;;
64210;SDS011;50528;48.514;14.394;2022-07-15T03:20:38;6.20;;;4.40;;
64210;SDS011;50528;48.514;14.394;2022-07-15T03:21:46;6.60;;;4.50;;
64210;SDS011;50528;48.514;14.394;2022-07-15T03:22:50;7.90;;;4.40;;
64210;SDS011;50528;48.514;14.394;2022-07-15T03:23:54;7.70;;;4.20;;
64210;SDS011;50528;48.514;14.394;2022-07-15T03:24:57;7.00;;;4.10;;
64210;SDS011;50528;48.514;14.394;2022-07-15T03:26:00;7.00;;;4.10;;
64210;SDS011;50528;48.514;14.394;2022-07-15T03:27:03;5.80;;;3.90;;
64210;SDS011;50528;48.514;14.394;2022-07-15T03:28:06;6.10;;;4.40;;
64210;SDS011;50528;48.514;14.394;2022-07-15T03:29:09;9.70;;;4.40;;
64210;SDS011;50528;48.514;14.394;2022-07-15T03:30:12;7.20;;;4.10;;
64210;SDS011;50528;48.514;14.394;2022-07-15T03:31:16;5.90;;;4.00;;
64210;SDS011;50528;48.514;14.394;2022-07-15T03:32:20;8.10;;;4.30;;
64210;SDS011;50528;48.514;14.394;2022-07-15T03:33:23;6.90;;;4.10;;
64210;SDS011;50528;48.514;14.394;2022-07-15T03:34:27;6.80;;;3.90;;
64210;SDS011;50528;48.514;14.394;2022-07-15T03:35:30;8.40;;;4.00;;
64210;SDS011;50528;48.514;14.394;2022-07-15T03:36:34;7.50;;;4.20;;
64210;SDS011;50528;48.514;14.394;2022-07-15T03:37:37;6.80;;;3.80;;
64210;SDS011;50528;48.514;14.394;2022-07-15T03:38:40;5.80;;;4.00;;
64210;SDS011;50528;48.514;14.394;2022-07-15T03:39:46;6.20;;;4.40;;
64210;SDS011;50528;48.514;14.394;2022-07-15T03:40:49;5.80;;;3.90;;
64210;SDS011;50528;48.514;14.394;2022-07-15T03:41:52;5.60;;;3.90;;
64210;SDS011;50528;48.514;14.394;2022-07-15T03:42:55;5.80;;;4.00;;
64210;SDS011;50528;48.514;14.394;2022-07-15T03:43:59;6.60;;;3.80;;
64210;SDS011;50528;48.514;14.394;2022-07-15T03:45:03;5.30;;;4.00;;
64210;SDS011;50528;48.514;14.394;2022-07-15T03:46:07;5.50;;;3.70;;
64210;SDS011;50528;48.514;14.394;2022-07-15T03:47:10;7.00;;;3.50;;
64210;SDS011;50528;48.514;14.394;2022-07-15T03:48:13;4.90;;;3.60;;
64210;SDS011;50528;48.514;14.394;2022-07-15T03:49:16;6.20;;;3.80;;
64210;SDS011;50528;48.514;14.394;2022-07-15T03:50:19;5.60;;;3.60;;
64210;SDS011;50528;48.514;14.394;2022-07-15T03:51:22;6.10;;;3.70;;
64210;SDS011;50528;48.514;14.394;2022-07-15T03:52:33;6.00;;;3.80;;
64210;SDS011;50528;48.514;14.394;2022-07-15T03:53:36;6.50;;;3.80;;
64210;SDS011;50528;48.514;14.394;2022-07-15T03:54:40;4.60;;;3.80;;
64210;SDS011;50528;48.514;14.394;2022-07-15T03:55:43;5.40;;;3.80;;
64210;SDS011;50528;48.514;14.394;2022-07-15T03:56:46;6.10;;;3.90;;
64210;SDS011;50528;48.514;14.394;2022-07-15T03:57:52;5.80;;;3.70;;
64210;SDS011;50528;48.514;14.394;2022-07-15T03:58:55;6.10;;;3.70;;
64210;SDS011;50528;48.514;14.394;2022-07-15T04:00:00;6.10;;;3.60;;
64210;SDS011;50528;48.514;14.394;2022-07-15T04:01:04;10.20;;;3.80;;
64210;SDS011;50528;48.514;14.394;2022-07-15T04:02:07;4.50;;;3.60;;
64210;SDS011;50528;48.514;14.394;2022-07-15T04:03:11;6.40;;;3.60;;
64210;SDS011;50528;48.514;14.394;2022-07-15T04:04:14;5.70;;;3.70;;
64210;SDS011;50528;48.514;14.394;2022-07-15T04:05:18;6.90;;;3.40;;
64210;SDS011;50528;48.514;14.394;2022-07-15T04:06:21;6.60;;;3.60;;
64210;SDS011;50528;48.514;14.394;2022-07-15T04:07:24;6.80;;;3.60;;
64210;SDS011;50528;48.514;14.394;2022-07-15T04:08:28;7.10;;;3.30;;
64210;SDS011;50528;48.514;14.394;2022-07-15T04:09:31;8.10;;;3.60;;
64210;SDS011;50528;48.514;14.394;2022-07-15T04:10:35;9.30;;;3.50;;
64210;SDS011;50528;48.514;14.394;2022-07-15T04:11:38;8.40;;;4.00;;
64210;SDS011;50528;48.514;14.394;2022-07-15T04:12:44;10.10;;;3.90;;
64210;SDS011;50528;48.514;14.394;2022-07-15T04:13:49;6.30;;;3.70;;
64210;SDS011;50528;48.514;14.394;2022-07-15T04:14:52;7.20;;;3.90;;
64210;SDS011;50528;48.514;14.394;2022-07-15T04:15:55;11.40;;;4.20;;
64210;SDS011;50528;48.514;14.394;2022-07-15T04:16:58;7.10;;;3.80;;
64210;SDS011;50528;48.514;14.394;2022-07-15T04:18:01;6.60;;;3.90;;
64210;SDS011;50528;48.514;14.394;2022-07-15T04:19:05;5.60;;;3.80;;
64210;SDS011;50528;48.514;14.394;2022-07-15T04:20:08;6.60;;;3.80;;
64210;SDS011;50528;48.514;14.394;2022-07-15T04:21:12;7.80;;;3.70;;
64210;SDS011;50528;48.514;14.394;2022-07-15T04:22:16;5.80;;;3.60;;
64210;SDS011;50528;48.514;14.394;2022-07-15T04:23:19;5.10;;;3.50;;
64210;SDS011;50528;48.514;14.394;2022-07-15T04:24:23;6.30;;;3.70;;
64210;SDS011;50528;48.514;14.394;2022-07-15T04:25:26;6.70;;;3.80;;
64210;SDS011;50528;48.514;14.394;2022-07-15T04:26:29;7.60;;;3.90;;
64210;SDS011;50528;48.514;14.394;2022-07-15T04:27:33;8.40;;;3.60;;
64210;SDS011;50528;48.514;14.394;2022-07-15T04:28:35;6.60;;;3.60;;
64210;SDS011;50528;48.514;14.394;2022-07-15T04:29:39;6.60;;;3.40;;
64210;SDS011;50528;48.514;14.394;2022-07-15T04:30:42;6.80;;;3.50;;
64210;SDS011;50528;48.514;14.394;2022-07-15T04:31:45;6.00;;;3.30;;
64210;SDS011;50528;48.514;14.394;2022-07-15T04:32:48;8.30;;;3.30;;
64210;SDS011;50528;48.514;14.394;2022-07-15T04:33:52;8.60;;;3.30;;
64210;SDS011;50528;48.514;14.394;2022-07-15T04:34:55;7.50;;;3.60;;
64210;SDS011;50528;48.514;14.394;2022-07-15T04:35:58;5.30;;;3.30;;
64210;SDS011;50528;48.514;14.394;2022-07-15T04:37:01;7.30;;;3.20;;
64210;SDS011;50528;48.514;14.394;2022-07-15T04:38:05;8.30;;;3.70;;
64210;SDS011;50528;48.514;14.394;2022-07-15T04:39:08;6.30;;;3.50;;
64210;SDS011;50528;48.514;14.394;2022-07-15T04:40:11;7.20;;;3.40;;
64210;SDS011;50528;48.514;14.394;2022-07-15T04:41:14;7.60;;;3.40;;
64210;SDS011;50528;48.514;14.394;2022-07-15T04:42:18;4.50;;;3.20;;
64210;SDS011;50528;48.514;14.394;2022-07-15T04:43:21;4.20;;;3.40;;
64210;SDS011;50528;48.514;14.394;2022-07-15T04:44:24;6.40;;;3.50;;
64210;SDS011;50528;48.514;14.394;2022-07-15T04:45:28;5.00;;;3.10;;
64210;SDS011;50528;48.514;14.394;2022-07-15T04:46:31;7.20;;;3.60;;
64210;SDS011;50528;48.514;14.394;2022-07-15T04:47:34;6.70;;;3.50;;
64210;SDS011;50528;48.514;14.394;2022-07-15T04:48:37;4.40;;;3.10;;
64210;SDS011;50528;48.514;14.394;2022-07-15T04:49:59;7.80;;;3.40;;
64210;SDS011;50528;48.514;14.394;2022-07-15T04:51:21;4.50;;;3.20;;
64210;SDS011;50528;48.514;14.394;2022-07-15T04:52:24;7.60;;;3.40;;
64210;SDS011;50528;48.514;14.394;2022-07-15T04:53:29;6.90;;;3.40;;
64210;SDS011;50528;48.514;14.394;2022-07-15T04:54:32;5.70;;;3.20;;
64210;SDS011;50528;48.514;14.394;2022-07-15T04:55:35;5.50;;;3.20;;
64210;SDS011;50528;48.514;14.394;2022-07-15T04:56:38;4.80;;;3.20;;
64210;SDS011;50528;48.514;14.394;2022-07-15T04:57:41;5.50;;;3.30;;
64210;SDS011;50528;48.514;14.394;2022-07-15T04:58:44;4.20;;;3.10;;
64210;SDS011;50528;48.514;14.394;2022-07-15T04:59:48;6.60;;;3.30;;
64210;SDS011;50528;48.514;14.394;2022-07-15T05:00:51;8.60;;;3.20;;
64210;SDS011;50528;48.514;14.394;2022-07-15T05:01:55;7.20;;;3.00;;
64210;SDS011;50528;48.514;14.394;2022-07-15T05:02:58;4.90;;;3.40;;
64210;SDS011;50528;48.514;14.394;2022-07-15T05:04:01;5.20;;;3.20;;
64210;SDS011;50528;48.514;14.394;2022-07-15T05:05:04;7.40;;;3.10;;
64210;SDS011;50528;48.514;14.394;2022-07-15T05:06:10;4.70;;;3.00;;
64210;SDS011;50528;48.514;14.394;2022-07-15T05:07:13;5.70;;;3.20;;
64210;SDS011;50528;48.514;14.394;2022-07-15T05:08:15;7.90;;;3.20;;
64210;SDS011;50528;48.514;14.394;2022-07-15T05:09:19;5.20;;;3.00;;
64210;SDS011;50528;48.514;14.394;2022-07-15T05:10:22;5.60;;;3.30;;
64210;SDS011;50528;48.514;14.394;2022-07-15T05:11:25;5.50;;;3.30;;
64210;SDS011;50528;48.514;14.394;2022-07-15T05:12:28;5.60;;;3.10;;
64210;SDS011;50528;48.514;14.394;2022-07-15T05:13:31;5.20;;;3.20;;
64210;SDS011;50528;48.514;14.394;2022-07-15T05:14:34;6.40;;;3.30;;
64210;SDS011;50528;48.514;14.394;2022-07-15T05:15:37;5.20;;;3.20;;
64210;SDS011;50528;48.514;14.394;2022-07-15T05:16:40;9.30;;;3.40;;
64210;SDS011;50528;48.514;14.394;2022-07-15T05:17:43;5.20;;;3.30;;
64210;SDS011;50528;48.514;14.394;2022-07-15T05:18:47;6.10;;;3.30;;
64210;SDS011;50528;48.514;14.394;2022-07-15T05:19:51;6.60;;;3.30;;
64210;SDS011;50528;48.514;14.394;2022-07-15T05:20:54;5.50;;;3.30;;
64210;SDS011;50528;48.514;14.394;2022-07-15T05:21:57;7.60;;;3.30;;
64210;SDS011;50528;48.514;14.394;2022-07-15T05:23:01;6.60;;;3.20;;
64210;SDS011;50528;48.514;14.394;2022-07-15T05:24:04;6.20;;;3.60;;
64210;SDS011;50528;48.514;14.394;2022-07-15T05:25:27;8.60;;;3.50;;
64210;SDS011;50528;48.514;14.394;2022-07-15T05:26:30;5.40;;;3.30;;
64210;SDS011;50528;48.514;14.394;2022-07-15T05:27:39;5.90;;;3.20;;
64210;SDS011;50528;48.514;14.394;2022-07-15T05:28:43;8.20;;;3.10;;
64210;SDS011;50528;48.514;14.394;2022-07-15T05:29:46;9.20;;;3.20;;
64210;SDS011;50528;48.514;14.394;2022-07-15T05:30:50;5.40;;;3.30;;
64210;SDS011;50528;48.514;14.394;2022-07-15T05:31:53;4.90;;;3.20;;
64210;SDS011;50528;48.514;14.394;2022-07-15T05:32:56;7.50;;;3.30;;
64210;SDS011;50528;48.514;14.394;2022-07-15T05:33:59;5.60;;;3.20;;
64210;SDS011;50528;48.514;14.394;2022-07-15T05:35:02;6.10;;;3.20;;
64210;SDS011;50528;48.514;14.394;2022-07-15T05:36:09;7.30;;;3.40;;
64210;SDS011;50528;48.514;14.394;2022-07-15T05:37:13;7.70;;;3.20;;
64210;SDS011;50528;48.514;14.394;2022-07-15T05:38:19;5.20;;;3.00;;
64210;SDS011;50528;48.514;14.394;2022-07-15T05:39:22;5.00;;;3.10;;
64210;SDS011;50528;48.514;14.394;2022-07-15T05:40:25;5.10;;;2.90;;
64210;SDS011;50528;48.514;14.394;2022-07-15T05:41:28;4.60;;;3.00;;
64210;SDS011;50528;48.514;14.394;2022-07-15T05:42:34;5.70;;;3.10;;
64210;SDS011;50528;48.514;14.394;2022-07-15T05:43:38;10.30;;;3.40;;
64210;SDS011;50528;48.514;14.394;2022-07-15T05:44:41;4.80;;;3.20;;
64210;SDS011;50528;48.514;14.394;2022-07-15T05:45:44;7.10;;;3.20;;
64210;SDS011;50528;48.514;14.394;2022-07-15T05:46:48;9.10;;;2.80;;
64210;SDS011;50528;48.514;14.394;2022-07-15T05:47:53;6.20;;;2.80;;
64210;SDS011;50528;48.514;14.394;2022-07-15T05:48:56;6.00;;;2.80;;
64210;SDS011;50528;48.514;14.394;2022-07-15T05:49:59;7.10;;;2.90;;
64210;SDS011;50528;48.514;14.394;2022-07-15T05:51:02;5.90;;;2.90;;
64210;SDS011;50528;48.514;14.394;2022-07-15T05:52:05;6.30;;;2.80;;
64210;SDS011;50528;48.514;14.394;2022-07-15T05:53:08;5.80;;;3.10;;
64210;SDS011;50528;48.514;14.394;2022-07-15T05:54:11;5.30;;;2.80;;
64210;SDS011;50528;48.514;14.394;2022-07-15T05:55:16;7.30;;;2.90;;
64210;SDS011;50528;48.514;14.394;2022-07-15T05:56:19;5.90;;;3.10;;
64210;SDS011;50528;48.514;14.394;2022-07-15T05:57:24;5.90;;;3.10;;
64210;SDS011;50528;48.514;14.394;2022-07-15T05:58:27;5.30;;;2.90;;
64210;SDS011;50528;48.514;14.394;2022-07-15T05:59:31;6.70;;;3.20;;
64210;SDS011;50528;48.514;14.394;2022-07-15T06:00:34;8.80;;;3.30;;
64210;SDS011;50528;48.514;14.394;2022-07-15T06:01:39;6.70;;;2.80;;
64210;SDS011;50528;48.514;14.394;2022-07-15T06:02:42;6.00;;;2.90;;
64210;SDS011;50528;48.514;14.394;2022-07-15T06:03:46;7.20;;;3.30;;
64210;SDS011;50528;48.514;14.394;2022-07-15T06:04:49;4.30;;;2.70;;
64210;SDS011;50528;48.514;14.394;2022-07-15T06:05:52;6.00;;;3.00;;
64210;SDS011;50528;48.514;14.394;2022-07-15T06:06:56;8.50;;;3.00;;
64210;SDS011;50528;48.514;14.394;2022-07-15T06:07:59;10.00;;;2.70;;
64210;SDS011;50528;48.514;14.394;2022-07-15T06:09:03;4.80;;;2.60;;
64210;SDS011;50528;48.514;14.394;2022-07-15T06:10:06;6.10;;;2.40;;
64210;SDS011;50528;48.514;14.394;2022-07-15T06:11:11;6.30;;;2.70;;
64210;SDS011;50528;48.514;14.394;2022-07-15T06:12:14;5.10;;;2.40;;
64210;SDS011;50528;48.514;14.394;2022-07-15T06:13:17;6.80;;;2.60;;
64210;SDS011;50528;48.514;14.394;2022-07-15T06:14:23;4.00;;;2.40;;
64210;SDS011;50528;48.514;14.394;2022-07-15T06:15:26;4.70;;;2.50;;
64210;SDS011;50528;48.514;14.394;2022-07-15T06:16:29;5.80;;;2.40;;
64210;SDS011;50528;48.514;14.394;2022-07-15T06:17:32;4.60;;;2.40;;
64210;SDS011;50528;48.514;14.394;2022-07-15T06:18:36;5.60;;;2.20;;
64210;SDS011;50528;48.514;14.394;2022-07-15T06:19:40;5.70;;;2.40;;